Time;durP1;ratioP1;P1;durP2;ratioP2;P2;SDS_P1;SDS_P2;PMS_P1;PMS_P2;Temp;Humidity;BMP_temperature;BMP_pressure;BME280_temperature;BME280_humidity;BME280_pressure;Samples;Min_cycle;Max_cycle;Signal;HPM_P1;HPM_P2
2023/07/27 00:01:20;;;;;;;;;2.67;2.67;;;;;27.69;41.52;100840.66;5097929;27;45442;-72
2023/07/27 00:03:46;;;;;;;;;2.00;2.00;;;;;27.69;41.26;100834.53;5098136;27;45381;-72
2023/07/27 00:06:11;;;;;;;;;2.67;2.00;;;;;27.67;40.88;100820.53;5097977;27;45405;-72
2023/07/27 00:08:36;;;;;;;;;2.00;2.00;;;;;27.70;41.48;100822.78;5097768;27;46045;-72
2023/07/27 00:11:02;;;;;;;;;1.00;1.00;;;;;27.69;40.99;100823.84;5097902;27;45444;-72
2023/07/27 00:13:27;;;;;;;;;3.00;3.00;;;;;27.69;41.25;100813.94;5097954;27;46159;-72
2023/07/27 00:15:52;;;;;;;;;2.00;2.00;;;;;27.70;41.01;100817.44;5097461;27;45470;-72
2023/07/27 00:18:18;;;;;;;;;3.00;2.00;;;;;27.70;40.99;100814.75;5097895;27;45373;-72
2023/07/27 00:20:43;;;;;;;;;5.67;2.00;;;;;27.71;41.44;100814.53;5097688;27;45264;-72
2023/07/27 00:23:08;;;;;;;;;2.00;2.00;;;;;27.72;41.49;100810.00;5097585;27;46274;-72
2023/07/27 00:25:33;;;;;;;;;1.67;1.67;;;;;27.68;41.15;100801.63;5097747;27;45688;-72
2023/07/27 00:27:59;;;;;;;;;2.00;2.00;;;;;27.72;41.56;100802.00;5096501;27;45386;-72
2023/07/27 00:30:24;;;;;;;;;1.00;1.00;;;;;27.73;40.90;100790.28;5097593;27;45512;-72
2023/07/27 00:32:49;;;;;;;;;1.33;1.00;;;;;27.72;41.27;100788.63;5097959;27;45457;-72
2023/07/27 00:35:15;;;;;;;;;1.00;1.00;;;;;27.73;41.22;100787.59;5108493;27;45370;-72
2023/07/27 00:37:41;;;;;;;;;2.00;2.00;;;;;27.71;41.02;100787.00;5097143;27;45392;-72
2023/07/27 00:40:07;;;;;;;;;3.00;2.33;;;;;27.73;41.37;100780.41;5096702;27;45420;-73
2023/07/27 00:42:32;;;;;;;;;2.67;2.33;;;;;27.71;41.03;100784.34;5097371;27;45583;-71
2023/07/27 00:44:57;;;;;;;;;1.00;1.00;;;;;27.72;41.28;100788.63;5097438;27;45311;-72
2023/07/27 00:47:23;;;;;;;;;2.33;2.33;;;;;27.70;40.95;100782.69;5097618;27;45416;-72
2023/07/27 00:49:48;;;;;;;;;2.00;2.00;;;;;27.73;41.61;100787.59;5097200;27;45301;-72
2023/07/27 00:52:14;;;;;;;;;3.00;3.00;;;;;27.72;41.51;100789.47;5096610;27;46021;-72
2023/07/27 00:54:39;;;;;;;;;1.33;1.00;;;;;27.71;41.22;100781.66;5097267;27;45382;-72
2023/07/27 00:57:06;;;;;;;;;2.00;2.00;;;;;27.71;40.95;100787.81;5097560;27;45430;-71
2023/07/27 00:59:32;;;;;;;;;2.00;2.00;;;;;27.71;41.57;100787.81;5096974;27;45370;-72
2023/07/27 01:01:58;;;;;;;;;2.33;2.33;;;;;27.73;41.19;100784.94;5096867;27;46081;-71
2023/07/27 01:04:24;;;;;;;;;2.00;2.00;;;;;27.71;40.95;100785.13;5096602;27;45456;-72
2023/07/27 01:06:50;;;;;;;;;3.00;1.67;;;;;27.74;41.17;100787.38;5083278;27;45472;-72
2023/07/27 01:09:15;;;;;;;;;2.00;2.00;;;;;27.73;41.48;100774.25;5095089;27;45456;-72
2023/07/27 01:11:43;;;;;;;;;3.00;3.00;;;;;27.74;41.08;100775.84;5096978;27;47093;-72
2023/07/27 01:14:23;;;;;;;;;2.67;1.67;;;;;27.74;41.51;100786.56;5096565;27;45384;-72
2023/07/27 01:17:01;;;;;;;;;2.00;2.00;;;;;27.72;41.16;100789.47;5089061;27;45357;-72
2023/07/27 01:19:53;;;;;;;;;2.33;1.00;;;;;27.73;41.57;100790.28;5097241;27;45959;-72
2023/07/27 01:22:34;;;;;;;;;2.00;2.00;;;;;27.73;41.19;100784.94;5096038;27;46426;-72
2023/07/27 01:25:25;;;;;;;;;2.00;2.00;;;;;27.73;41.00;100777.72;5086250;27;45627;-71
2023/07/27 01:28:18;;;;;;;;;2.00;2.00;;;;;27.74;41.04;100770.50;5093227;27;45240;-72
2023/07/27 01:30:54;;;;;;;;;5.00;2.00;;;;;27.73;40.61;100772.38;5096744;27;45456;-71
2023/07/27 01:33:33;;;;;;;;;3.00;1.00;;;;;27.75;41.38;100774.81;5096417;27;46098;-72
2023/07/27 01:36:08;;;;;;;;;3.33;2.33;;;;;27.74;41.21;100771.34;5095197;27;45496;-72
2023/07/27 01:38:36;;;;;;;;;2.00;2.00;;;;;27.68;41.43;100763.41;5095564;27;45374;-72
2023/07/27 01:41:04;;;;;;;;;1.00;1.00;;;;;27.73;40.63;100768.91;5085237;27;45491;-72
2023/07/27 01:43:31;;;;;;;;;2.00;2.00;;;;;27.76;41.12;100772.97;5096196;27;46923;-72
2023/07/27 01:45:58;;;;;;;;;3.00;1.00;;;;;27.74;40.61;100765.16;5096405;27;45272;-72
2023/07/27 01:48:26;;;;;;;;;2.00;2.00;;;;;27.75;41.43;100758.78;5096353;27;45405;-72
2023/07/27 01:50:53;;;;;;;;;1.00;1.00;;;;;27.75;40.96;100753.44;5096130;27;45479;-72
2023/07/27 01:53:21;;;;;;;;;2.00;2.00;;;;;27.77;40.82;100753.22;5096110;27;47298;-71
2023/07/27 01:55:46;;;;;;;;;2.00;2.00;;;;;27.76;41.28;100757.78;5096315;27;45317;-72
2023/07/27 01:58:15;;;;;;;;;2.00;2.00;;;;;27.73;41.21;100747.50;5096152;27;45385;-72
2023/07/27 02:00:41;;;;;;;;;2.00;1.00;;;;;27.74;41.21;100755.28;5096318;27;45396;-72
2023/07/27 02:03:08;;;;;;;;;2.00;2.00;;;;;27.76;41.18;100741.72;5095932;27;46060;-72
2023/07/27 02:05:34;;;;;;;;;2.00;2.00;;;;;27.77;41.33;100740.66;5096194;27;45434;-72
2023/07/27 02:07:59;;;;;;;;;2.00;2.00;;;;;27.78;40.99;100745.00;5096273;27;45449;-72
2023/07/27 02:10:25;;;;;;;;;3.00;2.00;;;;;27.79;41.09;100740.47;5086722;27;45553;-72
2023/07/27 02:13:14;;;;;;;;;3.33;2.00;;;;;27.78;40.67;100736.16;5092187;27;46276;-71
2023/07/27 02:15:43;;;;;;;;;1.33;1.00;;;;;27.74;40.68;100741.94;5095707;27;45361;-71
2023/07/27 02:18:15;;;;;;;;;1.00;1.00;;;;;27.75;40.94;100732.06;5095794;27;45514;-72
2023/07/27 02:20:42;;;;;;;;;1.00;1.00;;;;;27.72;40.93;100733.31;5101701;27;45778;-72
2023/07/27 02:23:10;;;;;;;;;1.67;1.33;;;;;27.75;40.87;100737.41;5095885;27;47421;-72
2023/07/27 02:25:35;;;;;;;;;2.00;1.00;;;;;27.75;40.67;100737.41;5095751;27;45362;-71
2023/07/27 02:28:00;;;;;;;;;2.00;2.00;;;;;27.73;40.63;100729.63;5098313;27;45466;-72
2023/07/27 02:30:26;;;;;;;;;1.33;1.33;;;;;27.77;41.07;100734.50;5099065;27;45630;-72
2023/07/27 02:32:51;;;;;;;;;1.33;1.33;;;;;27.76;40.68;100739.06;5087022;27;46966;-72
2023/07/27 02:35:17;;;;;;;;;1.67;1.67;;;;;27.75;41.34;100734.75;5099141;27;45371;-72
2023/07/27 02:37:42;;;;;;;;;2.00;2.00;;;;;27.75;41.17;100718.69;5099571;27;45366;-72
2023/07/27 02:40:08;;;;;;;;;2.00;2.00;;;;;27.76;41.46;100719.53;5085833;27;45513;-72
2023/07/27 02:42:33;;;;;;;;;1.67;1.67;;;;;27.69;40.97;100715.06;5099720;27;46259;-72
2023/07/27 02:44:59;;;;;;;;;1.00;1.00;;;;;27.76;41.02;100723.03;5099287;27;45445;-72
2023/07/27 02:47:24;;;;;;;;;2.00;2.00;;;;;27.76;41.37;100712.31;5099323;27;45300;-72
2023/07/27 02:49:49;;;;;;;;;1.67;1.67;;;;;27.76;40.83;100695.47;5098760;27;45381;-72
2023/07/27 02:52:15;;;;;;;;;1.00;1.00;;;;;27.76;40.67;100701.63;5099431;27;46369;-72
2023/07/27 02:54:40;;;;;;;;;2.00;2.00;;;;;27.75;41.04;100708.00;5099231;27;45312;-72
2023/07/27 02:57:05;;;;;;;;;1.00;1.00;;;;;27.74;41.39;100709.03;5091073;27;45414;-72
2023/07/27 02:59:30;;;;;;;;;4.00;3.00;;;;;27.74;40.66;100684.97;5105278;27;45407;-72
2023/07/27 03:01:56;;;;;;;;;1.33;1.33;;;;;27.76;40.83;100687.44;5098814;27;46127;-72
2023/07/27 03:04:22;;;;;;;;;1.00;1.00;;;;;27.75;41.44;100686.63;5098790;27;45316;-72
2023/07/27 03:06:48;;;;;;;;;1.33;1.33;;;;;27.76;40.67;100676.75;5099089;27;45333;-72
2023/07/27 03:09:13;;;;;;;;;1.00;1.00;;;;;27.76;41.16;100677.59;5099023;27;45535;-72
2023/07/27 03:11:38;;;;;;;;;1.67;1.67;;;;;27.78;40.69;100677.34;5098840;27;46091;-72
2023/07/27 03:14:04;;;;;;;;;2.00;2.00;;;;;27.77;40.69;100667.69;5099090;27;45377;-72
2023/07/27 03:16:30;;;;;;;;;3.00;2.00;;;;;27.75;41.33;100665.25;5100108;27;45430;-72
2023/07/27 03:18:56;;;;;;;;;1.00;1.00;;;;;27.77;41.27;100665.81;5105261;27;45287;-72
2023/07/27 03:21:21;;;;;;;;;2.00;2.00;;;;;27.77;40.92;100668.50;5098750;27;45272;-72
2023/07/27 03:23:48;;;;;;;;;2.33;2.00;;;;;27.76;41.47;100669.56;5098766;27;45461;-72
2023/07/27 03:26:15;;;;;;;;;3.00;1.33;;;;;27.77;41.40;100684.53;5098628;27;45272;-72
2023/07/27 03:28:40;;;;;;;;;2.00;2.00;;;;;27.78;41.31;100688.03;5098869;27;45498;-71
2023/07/27 03:31:32;;;;;;;;;1.00;1.00;;;;;27.79;40.62;100684.34;5098340;27;47191;-72
2023/07/27 03:33:58;;;;;;;;;0.00;0.00;;;;;27.77;40.92;100679.19;5096542;27;45347;-72
2023/07/27 03:36:23;;;;;;;;;3.00;1.00;;;;;27.78;41.05;100680.00;5097963;27;45308;-72
2023/07/27 03:38:48;;;;;;;;;2.00;1.00;;;;;27.77;40.91;100681.88;5097519;27;45424;-72
2023/07/27 03:41:14;;;;;;;;;3.00;1.33;;;;;27.76;41.02;100666.88;5097281;27;46308;-72
2023/07/27 03:43:39;;;;;;;;;3.00;2.00;;;;;27.76;40.72;100668.75;5098231;27;45282;-72
2023/07/27 03:46:05;;;;;;;;;2.00;2.00;;;;;27.76;40.76;100671.41;5098057;27;45406;-72
2023/07/27 03:48:30;;;;;;;;;1.33;1.33;;;;;27.75;41.04;100675.94;5097897;27;45460;-72
2023/07/27 03:51:00;;;;;;;;;0.00;0.00;;;;;27.76;41.31;100671.41;5097954;27;46283;-72
2023/07/27 03:53:26;;;;;;;;;1.00;1.00;;;;;27.76;41.00;100672.22;5098322;27;45365;-72
2023/07/27 03:55:51;;;;;;;;;1.00;1.00;;;;;27.74;40.78;100669.78;5098096;27;45314;-72
2023/07/27 03:58:16;;;;;;;;;1.00;0.33;;;;;27.76;40.90;100669.56;5084524;27;45221;-72
2023/07/27 04:00:41;;;;;;;;;1.00;1.00;;;;;27.78;40.88;100667.47;5097752;27;45980;-72
2023/07/27 04:03:07;;;;;;;;;2.00;2.00;;;;;27.70;41.29;100655.22;5098096;27;45336;-72
2023/07/27 04:05:32;;;;;;;;;2.00;1.00;;;;;27.76;41.32;100663.41;5098757;27;45291;-72
2023/07/27 04:07:57;;;;;;;;;1.00;1.00;;;;;27.77;40.90;100663.16;5097841;27;45421;-72
2023/07/27 04:10:24;;;;;;;;;2.00;2.00;;;;;27.77;41.35;100667.69;5097992;27;46084;-72
2023/07/27 04:12:50;;;;;;;;;1.00;1.00;;;;;27.74;40.92;100664.41;5108779;27;45838;-72
2023/07/27 04:15:15;;;;;;;;;3.00;1.00;;;;;27.75;41.29;100673.25;5097865;27;45369;-72
2023/07/27 04:17:41;;;;;;;;;1.00;1.00;;;;;27.73;40.91;100683.38;5097154;27;46451;-72
2023/07/27 04:20:08;;;;;;;;;1.00;1.00;;;;;27.75;41.01;100673.25;5098042;27;46159;-72
2023/07/27 04:22:33;;;;;;;;;0.00;0.00;;;;;27.77;41.42;100681.03;5097744;27;45511;-72
2023/07/27 04:24:59;;;;;;;;;1.00;1.00;;;;;27.76;41.20;100679.44;5098233;27;45415;-72
2023/07/27 04:27:24;;;;;;;;;1.00;1.00;;;;;27.78;41.03;100677.34;5097861;27;45421;-72
2023/07/27 04:29:49;;;;;;;;;2.00;2.00;;;;;27.78;40.93;100674.66;5096977;27;54505;-72
2023/07/27 04:32:14;;;;;;;;;1.00;1.00;;;;;27.78;40.60;100674.66;5097689;27;45403;-72
2023/07/27 04:34:40;;;;;;;;;1.00;1.00;;;;;27.77;40.68;100679.19;5097892;27;45306;-72
2023/07/27 04:37:05;;;;;;;;;1.00;1.00;;;;;27.79;40.88;100676.31;5097814;27;45281;-72
2023/07/27 04:39:30;;;;;;;;;1.67;1.67;;;;;27.77;40.91;100676.53;5098034;27;45272;-72
2023/07/27 04:41:56;;;;;;;;;1.33;1.00;;;;;27.79;40.63;100670.97;5101837;27;45486;-72
2023/07/27 04:44:22;;;;;;;;;0.00;0.00;;;;;27.78;41.11;100674.66;5096976;27;45384;-72
2023/07/27 04:46:47;;;;;;;;;1.33;1.00;;;;;27.76;40.57;100674.91;5096884;27;45446;-72
2023/07/27 04:49:13;;;;;;;;;1.00;1.00;;;;;27.78;41.45;100678.16;5096516;27;45815;-72
2023/07/27 04:51:38;;;;;;;;;1.33;1.00;;;;;27.77;41.14;100676.53;5096505;27;45499;-72
2023/07/27 04:54:03;;;;;;;;;1.00;1.00;;;;;27.76;41.12;100668.75;5103651;27;45452;-72
2023/07/27 04:56:29;;;;;;;;;1.00;1.00;;;;;27.75;41.30;100659.91;5097435;27;45401;-72
2023/07/27 04:58:55;;;;;;;;;1.00;1.00;;;;;27.77;41.48;100662.34;5096820;27;45387;-72
2023/07/27 05:01:20;;;;;;;;;1.00;1.00;;;;;27.77;41.33;100667.69;5097030;27;46553;-72
2023/07/27 05:03:46;;;;;;;;;1.00;1.00;;;;;27.76;41.28;100663.41;5102017;27;45481;-72
2023/07/27 05:06:11;;;;;;;;;1.00;1.00;;;;;27.72;41.38;100660.34;5101563;27;45656;-72
2023/07/27 05:08:37;;;;;;;;;1.00;1.00;;;;;27.76;40.99;100666.88;5084409;27;45358;-72
2023/07/27 05:11:03;;;;;;;;;1.00;1.00;;;;;27.66;41.23;100650.56;5096636;27;45339;-72
2023/07/27 05:13:28;;;;;;;;;1.00;1.00;;;;;27.77;40.86;100662.34;5097044;27;45397;-72
2023/07/27 05:15:54;;;;;;;;;1.00;1.00;;;;;27.79;40.74;100662.94;5096105;27;45406;-72
2023/07/27 05:18:19;;;;;;;;;1.33;1.33;;;;;27.78;40.90;100666.66;5079922;27;46302;-73
2023/07/27 05:20:44;;;;;;;;;1.00;1.00;;;;;27.78;41.02;100663.97;5096476;27;45409;-72
2023/07/27 05:23:10;;;;;;;;;1.00;1.00;;;;;27.79;41.32;100660.28;5096862;27;45298;-72
2023/07/27 05:25:35;;;;;;;;;1.00;1.00;;;;;27.78;41.41;100664.81;5096661;27;45255;-72
2023/07/27 05:28:00;;;;;;;;;1.00;1.00;;;;;27.72;41.01;100655.81;5089284;27;46247;-71
2023/07/27 05:30:26;;;;;;;;;0.00;0.00;;;;;27.78;41.26;100669.31;5090128;27;45236;-72
2023/07/27 05:32:51;;;;;;;;;0.67;0.67;;;;;27.77;41.34;100662.34;5096800;27;46024;-72
2023/07/27 05:35:16;;;;;;;;;1.00;1.00;;;;;27.79;41.20;100679.00;5097087;27;45504;-72
2023/07/27 05:37:46;;;;;;;;;2.00;1.00;;;;;27.79;41.02;100676.31;5096683;27;46530;-72
2023/07/27 05:40:13;;;;;;;;;1.00;1.00;;;;;27.79;41.30;100681.66;5082598;27;45375;-72
2023/07/27 05:42:38;;;;;;;;;1.00;1.00;;;;;27.80;41.12;100672.63;5096335;27;45443;-72
2023/07/27 05:45:04;;;;;;;;;2.67;1.00;;;;;27.76;40.89;100669.56;5083135;27;45399;-71
2023/07/27 05:47:29;;;;;;;;;1.33;0.33;;;;;27.77;41.48;100673.03;5096755;27;46266;-72
2023/07/27 05:49:55;;;;;;;;;0.67;0.67;;;;;27.72;41.04;100669.19;5096462;27;45423;-73
2023/07/27 05:52:20;;;;;;;;;2.00;1.33;;;;;27.78;40.69;100680.00;5096261;27;45315;-73
2023/07/27 05:54:46;;;;;;;;;2.00;2.00;;;;;27.79;41.32;100692.34;5091120;27;46180;-73
2023/07/27 05:57:11;;;;;;;;;1.33;1.33;;;;;27.79;40.70;100674.44;5096052;27;49637;-71
2023/07/27 05:59:36;;;;;;;;;2.00;1.00;;;;;27.79;41.40;100676.31;5095923;27;45413;-72
2023/07/27 06:02:02;;;;;;;;;1.00;0.00;;;;;27.78;40.64;100680.84;5096085;27;45759;-71
2023/07/27 06:04:28;;;;;;;;;0.00;0.00;;;;;27.70;41.29;100687.31;5088259;27;45496;-70
2023/07/27 06:06:54;;;;;;;;;0.00;0.00;;;;;27.55;41.21;100692.19;5091612;27;46376;-70
2023/07/27 06:09:20;;;;;;;;;1.00;1.00;;;;;27.41;41.26;100695.00;5095119;27;45397;-72
2023/07/27 06:11:45;;;;;;;;;0.00;0.00;;;;;27.29;41.76;100695.75;5082852;27;45429;-69
2023/07/27 06:14:11;;;;;;;;;1.00;0.00;;;;;27.18;41.35;100699.94;5096004;27;45487;-73
2023/07/27 06:16:36;;;;;;;;;2.00;1.00;;;;;27.03;41.79;100700.25;5095799;27;46187;-71
2023/07/27 06:19:02;;;;;;;;;0.00;0.00;;;;;26.92;42.08;100709.78;5095764;27;45861;-70
2023/07/27 06:21:27;;;;;;;;;1.00;1.00;;;;;26.81;42.17;100707.78;5096381;27;45752;-70
2023/07/27 06:23:53;;;;;;;;;0.67;0.00;;;;;26.72;42.48;100704.59;5096278;27;45420;-75
2023/07/27 06:26:18;;;;;;;;;0.00;0.00;;;;;26.64;42.27;100697.66;5094534;27;46071;-72
2023/07/27 06:28:43;;;;;;;;;0.00;0.00;;;;;26.57;42.47;100708.34;5096098;27;45357;-71
2023/07/27 06:31:09;;;;;;;;;0.00;0.00;;;;;26.46;42.31;100699.22;5096122;27;45448;-73
2023/07/27 06:33:34;;;;;;;;;0.00;0.00;;;;;26.50;42.49;100699.56;5081853;27;45454;-73
2023/07/27 06:36:00;;;;;;;;;0.00;0.00;;;;;26.55;42.55;100701.59;5087242;27;45981;-73
2023/07/27 06:38:25;;;;;;;;;1.00;1.00;;;;;26.60;43.00;100707.94;5093170;27;45516;-73
2023/07/27 06:40:51;;;;;;;;;0.00;0.00;;;;;26.68;43.09;100706.84;5103899;27;45521;-73
2023/07/27 06:43:16;;;;;;;;;0.33;0.33;;;;;26.77;42.61;100710.09;5101474;27;45879;-73
2023/07/27 06:45:42;;;;;;;;;0.67;0.67;;;;;26.84;42.87;100702.84;5096813;27;46098;-73
2023/07/27 06:48:08;;;;;;;;;1.00;0.00;;;;;26.92;42.07;100716.97;5101493;27;45417;-73
2023/07/27 06:50:33;;;;;;;;;0.00;0.00;;;;;26.98;42.50;100713.44;5096661;27;45803;-73
2023/07/27 06:52:59;;;;;;;;;2.00;0.00;;;;;27.03;41.96;100716.25;5094068;27;45349;-73
2023/07/27 06:55:24;;;;;;;;;0.00;0.00;;;;;27.06;41.82;100701.66;5100742;27;46952;-73
2023/07/27 06:57:49;;;;;;;;;0.67;0.67;;;;;27.10;42.41;100710.03;5096393;27;46555;-73
2023/07/27 07:00:15;;;;;;;;;0.33;0.33;;;;;27.12;42.40;100706.13;5093053;27;45755;-73
2023/07/27 07:02:40;;;;;;;;;1.00;1.00;;;;;27.22;41.56;100707.53;5100986;27;46214;-73
2023/07/27 07:05:06;;;;;;;;;1.00;1.00;;;;;27.25;42.05;100710.56;5095923;27;46216;-73
2023/07/27 07:07:31;;;;;;;;;0.67;0.67;;;;;27.28;42.16;100718.13;5096163;27;45570;-73
2023/07/27 07:09:57;;;;;;;;;1.00;1.00;;;;;27.32;42.11;100720.38;5102922;27;45389;-73
2023/07/27 07:12:22;;;;;;;;;0.00;0.00;;;;;27.34;41.48;100719.13;5106067;27;46686;-73
2023/07/27 07:14:47;;;;;;;;;1.00;1.00;;;;;27.37;41.29;100716.00;5094750;27;46268;-72
2023/07/27 07:17:13;;;;;;;;;0.00;0.00;;;;;27.39;41.61;100713.09;5095180;27;45492;-73
2023/07/27 07:19:38;;;;;;;;;1.33;1.33;;;;;27.40;41.69;100712.88;5099516;27;45462;-72
2023/07/27 07:22:04;;;;;;;;;1.00;1.00;;;;;27.44;41.28;100707.09;5096056;27;45429;-73
2023/07/27 07:24:29;;;;;;;;;1.00;1.00;;;;;27.42;41.59;100691.31;5096990;27;46267;-74
2023/07/27 07:26:55;;;;;;;;;0.33;0.33;;;;;27.44;41.31;100697.22;5105699;27;45484;-73
2023/07/27 07:29:21;;;;;;;;;0.67;0.00;;;;;27.47;41.18;100691.44;5109668;27;45363;-73
2023/07/27 07:31:47;;;;;;;;;0.33;0.33;;;;;27.47;41.71;100690.63;5101836;27;45525;-73
2023/07/27 07:34:12;;;;;;;;;2.00;1.00;;;;;27.49;41.41;100701.91;5103659;27;45961;-74
2023/07/27 07:36:37;;;;;;;;;0.00;0.00;;;;;27.49;41.33;100704.56;5109389;27;45736;-72
2023/07/27 07:39:03;;;;;;;;;0.33;0.33;;;;;27.49;41.17;100699.25;5107876;27;45346;-74
2023/07/27 07:41:28;;;;;;;;;1.00;1.00;;;;;27.50;41.11;100700.88;5098228;27;45824;-73
2023/07/27 07:43:53;;;;;;;;;0.33;0.33;;;;;27.50;41.69;100707.03;5094510;27;46416;-74
2023/07/27 07:46:19;;;;;;;;;1.00;1.00;;;;;27.51;41.70;100700.66;5094072;27;45357;-74
2023/07/27 07:48:44;;;;;;;;;1.00;0.00;;;;;27.54;41.38;100694.03;5094482;27;45495;-73
2023/07/27 07:51:14;;;;;;;;;1.00;0.67;;;;;27.51;40.92;100684.63;5094560;27;45478;-74
2023/07/27 07:53:40;;;;;;;;;1.00;1.00;;;;;27.56;41.14;100691.97;5102743;27;47154;-74
2023/07/27 07:56:13;;;;;;;;;0.00;0.00;;;;;27.50;41.38;100683.00;5107512;27;45386;-73
2023/07/27 07:58:38;;;;;;;;;0.67;0.67;;;;;27.56;41.29;100683.94;5093975;27;45479;-74
2023/07/27 08:01:04;;;;;;;;;0.00;0.00;;;;;27.62;41.17;100692.94;5116235;27;45438;-72
2023/07/27 08:03:29;;;;;;;;;2.00;1.00;;;;;27.64;40.96;100688.19;5114302;27;46089;-72
2023/07/27 08:05:55;;;;;;;;;1.00;0.00;;;;;27.62;41.26;100685.75;5110852;27;45445;-74
2023/07/27 08:08:20;;;;;;;;;1.00;1.00;;;;;27.67;41.46;100678.91;5114588;27;45353;-73
2023/07/27 08:10:45;;;;;;;;;1.67;1.00;;;;;27.68;40.95;100670.69;5108926;27;45425;-73
2023/07/27 08:13:11;;;;;;;;;0.67;0.67;;;;;27.70;41.10;100678.47;5114603;27;46155;-73
2023/07/27 08:15:36;;;;;;;;;2.00;0.00;;;;;27.70;41.45;100676.59;5108556;27;46350;-74
2023/07/27 08:18:01;;;;;;;;;0.33;0.33;;;;;27.69;40.93;100671.50;5113114;27;45304;-73
2023/07/27 08:20:27;;;;;;;;;1.00;1.00;;;;;27.69;41.08;100669.63;5107970;27;45491;-73
2023/07/27 08:22:52;;;;;;;;;0.67;0.67;;;;;27.64;40.97;100664.13;5097670;27;46171;-74
2023/07/27 08:25:17;;;;;;;;;2.33;0.00;;;;;27.70;40.79;100668.59;5092181;27;45490;-72
2023/07/27 08:27:43;;;;;;;;;1.00;1.00;;;;;27.70;41.48;100665.09;5110667;27;45494;-72
2023/07/27 08:30:09;;;;;;;;;2.00;1.00;;;;;27.70;41.24;100668.59;5114560;27;45435;-72
2023/07/27 08:32:34;;;;;;;;;1.00;1.00;;;;;27.69;41.26;100668.81;5114774;27;47008;-72
2023/07/27 08:34:59;;;;;;;;;1.00;1.00;;;;;27.69;41.01;100666.94;5113092;27;45432;-73
2023/07/27 08:37:25;;;;;;;;;1.33;0.33;;;;;27.69;41.23;100676.84;5097040;27;45765;-73
2023/07/27 08:39:50;;;;;;;;;0.33;0.33;;;;;27.61;41.05;100660.03;5103812;27;45404;-74
2023/07/27 08:42:16;;;;;;;;;0.33;0.33;;;;;27.70;41.27;100676.59;5094882;27;45993;-73
2023/07/27 08:44:43;;;;;;;;;2.00;2.00;;;;;27.73;40.88;100675.34;5104183;27;45433;-74
2023/07/27 08:47:10;;;;;;;;;0.00;0.00;;;;;27.74;41.06;100677.78;5110611;27;45570;-74
2023/07/27 08:49:39;;;;;;;;;0.00;0.00;;;;;27.73;41.14;100667.31;5106118;27;45434;-73
2023/07/27 08:52:06;;;;;;;;;0.00;0.00;;;;;27.71;40.88;100664.84;5098045;27;45997;-74
2023/07/27 08:54:31;;;;;;;;;0.00;0.00;;;;;27.78;41.32;100675.50;5097816;27;45489;-74
2023/07/27 08:56:57;;;;;;;;;0.33;0.33;;;;;27.76;40.86;100677.59;5094196;27;45322;-74
2023/07/27 08:59:25;;;;;;;;;0.67;0.67;;;;;27.79;40.74;100682.44;5107585;27;45400;-73
2023/07/27 09:01:51;;;;;;;;;0.00;0.00;;;;;27.77;40.95;100675.69;5102943;27;46979;-73
2023/07/27 09:04:16;;;;;;;;;2.33;1.00;;;;;27.80;41.05;100675.28;5093679;27;45330;-73
2023/07/27 09:06:44;;;;;;;;;0.00;0.00;;;;;27.83;40.87;100678.34;5113395;27;45442;-74
2023/07/27 09:09:13;;;;;;;;;0.33;0.00;;;;;27.84;41.28;100682.63;5101383;27;45497;-75
2023/07/27 09:11:40;;;;;;;;;1.00;1.00;;;;;27.84;41.19;100682.63;5093792;27;45370;-74
2023/07/27 09:14:05;;;;;;;;;0.00;0.00;;;;;27.85;41.13;100683.44;5114124;27;45440;-73
2023/07/27 09:16:35;;;;;;;;;2.00;1.00;;;;;27.82;40.61;100682.03;5102404;27;45303;-74
2023/07/27 09:19:01;;;;;;;;;1.33;1.33;;;;;27.87;40.78;100683.25;5099912;27;45670;-74
2023/07/27 09:21:27;;;;;;;;;0.00;0.00;;;;;27.85;41.15;100676.25;5106691;27;46179;-74
2023/07/27 09:23:58;;;;;;;;;0.00;0.00;;;;;27.86;40.72;100687.78;5105161;27;45349;-74
2023/07/27 09:26:27;;;;;;;;;1.00;0.33;;;;;27.85;40.98;100684.28;5101873;27;45766;-74
2023/07/27 09:28:53;;;;;;;;;1.33;1.33;;;;;27.88;41.24;100690.22;5101582;27;45414;-73
2023/07/27 09:31:18;;;;;;;;;2.00;2.00;;;;;27.85;40.69;100686.94;5101030;27;46145;-74
2023/07/27 09:33:44;;;;;;;;;0.00;0.00;;;;;27.88;41.13;100684.88;5103503;27;45525;-73
2023/07/27 09:36:10;;;;;;;;;1.67;1.67;;;;;27.88;40.65;100680.34;5105723;27;45689;-74
2023/07/27 09:38:36;;;;;;;;;0.00;0.00;;;;;27.88;40.80;100688.34;5104093;27;45400;-73
2023/07/27 09:41:08;;;;;;;;;0.67;0.67;;;;;27.88;40.47;100691.03;5096615;27;46524;-73
2023/07/27 09:43:40;;;;;;;;;0.00;0.00;;;;;27.87;40.44;100686.72;5107098;27;45376;-74
2023/07/27 09:46:05;;;;;;;;;1.00;1.00;;;;;27.85;40.76;100694.97;5105608;27;45424;-74
2023/07/27 09:48:32;;;;;;;;;2.00;0.00;;;;;27.84;41.27;100690.66;5099544;27;45963;-74
2023/07/27 09:50:59;;;;;;;;;0.00;0.00;;;;;27.83;41.11;100693.56;5108402;27;46412;-73
2023/07/27 09:53:28;;;;;;;;;1.00;1.00;;;;;27.83;41.52;100682.88;5102585;27;45347;-73
2023/07/27 09:55:56;;;;;;;;;1.00;1.00;;;;;27.83;41.16;100697.06;5102986;27;45902;-73
2023/07/27 09:58:22;;;;;;;;;1.00;1.00;;;;;27.83;41.33;100697.06;5099795;27;45455;-74
2023/07/27 10:00:47;;;;;;;;;1.33;1.00;;;;;27.83;41.57;100696.22;5096431;27;45605;-74
2023/07/27 10:03:13;;;;;;;;;1.00;1.00;;;;;27.82;40.82;100687.38;5102044;27;45456;-74
2023/07/27 10:05:41;;;;;;;;;0.00;0.00;;;;;27.84;41.36;100692.53;5106286;27;45385;-74
2023/07/27 10:08:06;;;;;;;;;1.00;1.00;;;;;27.81;41.09;100693.78;5102565;27;45828;-74
2023/07/27 10:10:32;;;;;;;;;1.00;1.00;;;;;27.84;41.19;100692.53;5100918;27;46727;-74
2023/07/27 10:12:58;;;;;;;;;3.33;2.00;;;;;27.87;41.15;100693.94;5101179;27;46286;-74
2023/07/27 10:15:28;;;;;;;;;0.67;0.67;;;;;27.84;41.42;100698.66;5096439;27;46510;-73
2023/07/27 10:17:58;;;;;;;;;0.00;0.00;;;;;27.85;41.48;100702.16;5101768;27;45486;-74
2023/07/27 10:20:33;;;;;;;;;1.33;1.33;;;;;27.84;41.17;100705.91;5108293;27;47025;-74
2023/07/27 10:23:18;;;;;;;;;0.67;0.67;;;;;27.83;41.08;100704.25;5109846;27;45405;-74
2023/07/27 10:25:52;;;;;;;;;0.00;0.00;;;;;27.85;41.14;100700.31;5094343;27;45401;-74
2023/07/27 10:28:54;;;;;;;;;0.00;0.00;;;;;27.87;41.36;100704.63;5101434;27;45855;-73
2023/07/27 10:31:27;;;;;;;;;0.67;0.67;;;;;27.84;41.08;100690.66;5094189;27;45500;-74
2023/07/27 10:33:56;;;;;;;;;1.00;1.00;;;;;27.87;41.44;100699.28;5096947;27;45495;-73
2023/07/27 10:36:23;;;;;;;;;3.00;1.33;;;;;27.76;41.21;100684.78;5106824;27;45705;-73
2023/07/27 10:38:56;;;;;;;;;2.00;2.00;;;;;27.86;41.21;100703.81;5091457;27;45554;-74
2023/07/27 10:41:24;;;;;;;;;2.00;2.00;;;;;27.85;40.98;100703.00;5094624;27;46225;-74
2023/07/27 10:44:08;;;;;;;;;1.00;1.00;;;;;27.87;40.86;100704.63;5097286;27;45851;-73
2023/07/27 10:46:39;;;;;;;;;0.33;0.33;;;;;27.87;41.61;100701.97;5091673;27;45413;-72
2023/07/27 10:49:11;;;;;;;;;2.00;2.00;;;;;27.88;41.81;100700.91;5096722;27;45547;-74
2023/07/27 10:51:41;;;;;;;;;2.67;1.00;;;;;27.85;41.52;100697.63;5101997;27;46344;-74
2023/07/27 10:54:08;;;;;;;;;1.00;1.00;;;;;27.81;41.58;100692.97;5102179;27;45537;-74
2023/07/27 10:56:35;;;;;;;;;1.00;1.00;;;;;27.86;41.43;100695.78;5104346;27;45529;-74
2023/07/27 10:59:01;;;;;;;;;1.00;1.00;;;;;27.87;41.41;100694.72;5109710;27;45454;-74
2023/07/27 11:01:32;;;;;;;;;1.00;1.00;;;;;27.88;41.81;100691.03;5102832;27;45990;-74
2023/07/27 11:03:58;;;;;;;;;1.33;1.00;;;;;27.90;41.61;100696.13;5109508;27;45500;-74
2023/07/27 11:06:24;;;;;;;;;1.00;1.00;;;;;27.89;41.67;100700.69;5112873;27;45423;-74
2023/07/27 11:08:50;;;;;;;;;2.33;1.33;;;;;27.92;41.52;100704.78;5097550;27;45661;-74
2023/07/27 11:11:18;;;;;;;;;3.00;2.00;;;;;27.92;41.77;100702.91;5096729;27;46269;-73
2023/07/27 11:13:43;;;;;;;;;2.00;2.00;;;;;27.90;41.46;100696.13;5101379;27;45463;-74
2023/07/27 11:16:09;;;;;;;;;2.00;2.00;;;;;27.91;41.80;100700.47;5101432;27;45448;-72
2023/07/27 11:18:35;;;;;;;;;1.33;1.33;;;;;27.92;41.53;100702.91;5102774;27;45683;-72
2023/07/27 11:21:02;;;;;;;;;2.00;2.00;;;;;27.89;41.22;100695.34;5102589;27;46322;-72
2023/07/27 11:23:29;;;;;;;;;1.00;1.00;;;;;27.93;41.70;100709.88;5099933;27;45819;-73